Time;durP1;ratioP1;P1;durP2;ratioP2;P2;SDS_P1;SDS_P2;PMS_P1;PMS_P2;Temp;Humidity;BMP_temperature;BMP_pressure;BME280_temperature;BME280_humidity;BME280_pressure;Samples;Min_cycle;Max_cycle;Signal;HPM_P1;HPM_P2
2021/12/30 00:00:33;;;;;;;0.90;0.17;;;20.20;62.90;;;;;;5043713;28;20052;-60
2021/12/30 00:03:02;;;;;;;1.98;0.73;;;20.20;62.90;;;;;;5047635;28;20029;-60
2021/12/30 00:05:30;;;;;;;4.75;0.80;;;20.20;63.00;;;;;;5044920;28;20054;-60
2021/12/30 00:07:57;;;;;;;1.27;0.20;;;20.20;63.00;;;;;;5038674;28;20045;-58
2021/12/30 00:10:24;;;;;;;1.30;0.10;;;20.20;63.00;;;;;;5037018;28;20413;-46
2021/12/30 00:12:52;;;;;;;2.20;0.10;;;20.20;63.10;;;;;;5043239;28;20040;-47
2021/12/30 00:15:20;;;;;;;3.20;0.10;;;20.30;63.20;;;;;;5042894;28;20045;-42
2021/12/30 00:17:48;;;;;;;10.90;0.20;;;20.20;63.10;;;;;;5036475;28;20048;-46
2021/12/30 00:20:17;;;;;;;0.90;0.17;;;20.30;63.80;;;;;;5040785;28;20053;-44
2021/12/30 00:22:44;;;;;;;5.05;0.10;;;20.30;63.30;;;;;;5042683;28;20041;-43
2021/12/30 00:25:12;;;;;;;5.65;0.20;;;20.20;63.20;;;;;;5039860;28;20052;-46
2021/12/30 00:27:39;;;;;;;3.38;0.17;;;20.30;63.70;;;;;;5045410;28;20052;-44
2021/12/30 00:30:08;;;;;;;0.77;0.40;;;20.30;63.10;;;;;;5040981;28;20052;-43
2021/12/30 00:32:35;;;;;;;6.45;0.10;;;20.30;63.10;;;;;;5037535;28;20041;-45
2021/12/30 00:35:04;;;;;;;1.92;0.82;;;20.30;63.00;;;;;;5039978;28;20047;-43
2021/12/30 00:37:32;;;;;;;5.10;0.55;;;20.30;63.00;;;;;;5038407;28;20044;-46
2021/12/30 00:39:59;;;;;;;0.55;0.40;;;20.30;63.00;;;;;;5039359;28;20059;-45
2021/12/30 00:42:26;;;;;;;4.93;0.63;;;20.30;62.90;;;;;;5039820;28;20049;-46
2021/12/30 00:44:53;;;;;;;0.10;0.00;;;20.30;62.90;;;;;;5040949;28;20067;-44
2021/12/30 00:47:21;;;;;;;0.10;0.10;;;20.30;62.90;;;;;;5042380;28;20079;-46
2021/12/30 00:49:48;;;;;;;3.67;0.47;;;20.30;62.90;;;;;;5041394;28;20043;-46
2021/12/30 00:52:15;;;;;;;0.20;0.10;;;20.30;62.90;;;;;;5041001;28;20041;-46
2021/12/30 00:54:43;;;;;;;9.70;0.30;;;20.40;62.90;;;;;;5042516;28;20060;-44
2021/12/30 00:57:10;;;;;;;0.57;0.08;;;20.40;62.90;;;;;;5039937;28;20037;-46
2021/12/30 00:59:37;;;;;;;0.40;0.22;;;20.40;62.90;;;;;;5038759;28;20735;-42
2021/12/30 01:02:04;;;;;;;1.38;0.15;;;20.30;62.80;;;;;;5039978;28;20033;-44
2021/12/30 01:04:31;;;;;;;3.90;0.43;;;20.40;62.90;;;;;;5041438;28;20082;-44
2021/12/30 01:06:59;;;;;;;0.55;0.10;;;20.40;62.90;;;;;;5040611;28;20410;-44
2021/12/30 01:09:26;;;;;;;0.98;0.05;;;20.40;62.90;;;;;;5041464;28;20044;-44
2021/12/30 01:11:55;;;;;;;0.43;0.00;;;20.40;62.80;;;;;;5036448;28;20037;-44
2021/12/30 01:14:25;;;;;;;0.20;0.20;;;20.40;62.80;;;;;;5036621;28;20548;-46
2021/12/30 01:16:57;;;;;;;0.32;0.10;;;20.40;62.80;;;;;;5037321;28;20041;-48
2021/12/30 01:19:42;;;;;;;4.80;0.10;;;20.40;62.90;;;;;;5038624;28;20049;-44
2021/12/30 01:22:11;;;;;;;1.27;0.10;;;20.40;62.90;;;;;;5035702;28;20041;-44
2021/12/30 01:24:38;;;;;;;3.10;0.10;;;20.40;63.00;;;;;;5042035;28;20055;-46
2021/12/30 01:27:07;;;;;;;5.57;0.10;;;20.40;63.10;;;;;;5040833;28;20053;-43
2021/12/30 01:29:34;;;;;;;1.23;0.10;;;20.40;63.10;;;;;;5041746;28;20068;-42
2021/12/30 01:32:02;;;;;;;1.55;0.10;;;20.40;63.10;;;;;;5041092;28;20051;-42
2021/12/30 01:34:29;;;;;;;0.30;0.17;;;20.40;63.10;;;;;;5041385;28;20044;-47
2021/12/30 01:37:00;;;;;;;3.80;0.00;;;20.40;63.10;;;;;;5039321;28;20037;-43
2021/12/30 01:39:27;;;;;;;2.58;0.10;;;20.40;63.10;;;;;;5043003;28;20041;-43
2021/12/30 01:41:55;;;;;;;1.05;0.10;;;20.40;63.10;;;;;;5038678;28;20041;-44
2021/12/30 01:44:23;;;;;;;1.45;0.10;;;20.40;63.10;;;;;;5037564;28;20052;-42
2021/12/30 01:46:51;;;;;;;2.42;0.08;;;20.40;63.10;;;;;;5038029;28;20413;-41
2021/12/30 01:49:19;;;;;;;0.60;0.20;;;20.50;63.10;;;;;;5040004;28;20044;-46
2021/12/30 01:51:46;;;;;;;1.52;0.10;;;20.50;63.10;;;;;;5035140;28;20037;-46
2021/12/30 01:54:13;;;;;;;0.17;0.10;;;20.40;63.10;;;;;;5038795;28;20230;-43
2021/12/30 01:56:40;;;;;;;0.90;0.35;;;20.40;63.10;;;;;;5038921;28;20037;-44
2021/12/30 01:59:09;;;;;;;3.35;0.10;;;20.50;63.10;;;;;;5038905;28;20048;-42
2021/12/30 02:01:37;;;;;;;2.70;0.57;;;20.40;63.10;;;;;;5035325;28;20498;-43
2021/12/30 02:04:05;;;;;;;2.28;0.80;;;20.50;63.10;;;;;;5035682;28;20029;-47
2021/12/30 02:06:32;;;;;;;0.73;0.10;;;20.50;63.10;;;;;;5038432;28;20529;-42
2021/12/30 02:09:00;;;;;;;2.28;0.43;;;20.50;63.10;;;;;;5035229;28;20072;-45
2021/12/30 02:11:28;;;;;;;2.20;0.10;;;20.50;63.10;;;;;;5035239;28;20387;-47
2021/12/30 02:13:55;;;;;;;0.08;0.00;;;20.40;63.10;;;;;;5033585;28;20037;-42
2021/12/30 02:16:22;;;;;;;2.10;0.00;;;20.50;63.10;;;;;;5034785;28;20041;-43
2021/12/30 02:18:52;;;;;;;0.20;0.00;;;20.50;63.10;;;;;;5031741;28;20045;-44
2021/12/30 02:21:21;;;;;;;4.38;0.10;;;20.40;63.10;;;;;;5036577;28;20120;-46
2021/12/30 02:23:48;;;;;;;0.10;0.00;;;20.40;63.10;;;;;;5042774;28;20059;-41
2021/12/30 02:26:17;;;;;;;0.10;0.10;;;20.50;63.10;;;;;;5034787;28;20068;-45
2021/12/30 02:28:46;;;;;;;1.45;0.00;;;20.40;63.00;;;;;;5044706;28;20056;-43
2021/12/30 02:31:15;;;;;;;0.10;0.10;;;20.40;63.10;;;;;;5032242;28;20136;-43
2021/12/30 02:33:43;;;;;;;2.85;0.03;;;20.40;63.10;;;;;;5038010;28;20037;-41
2021/12/30 02:36:12;;;;;;;0.10;0.00;;;20.40;63.10;;;;;;5040517;28;20037;-43
2021/12/30 02:38:44;;;;;;;0.10;0.00;;;20.40;63.10;;;;;;5034634;28;20033;-51
2021/12/30 02:41:15;;;;;;;1.58;0.10;;;20.40;63.10;;;;;;5035252;28;20040;-44
2021/12/30 02:43:43;;;;;;;0.40;0.10;;;20.40;63.10;;;;;;5034602;28;20049;-42
2021/12/30 02:46:11;;;;;;;1.85;0.00;;;20.40;63.10;;;;;;5030623;28;20049;-43
2021/12/30 02:48:41;;;;;;;1.10;0.00;;;20.40;63.20;;;;;;5033129;28;20060;-45
2021/12/30 02:51:10;;;;;;;0.85;0.00;;;20.40;63.30;;;;;;5038916;28;20464;-44
2021/12/30 02:53:38;;;;;;;0.57;0.00;;;20.40;63.40;;;;;;5035633;28;20148;-45
2021/12/30 02:56:07;;;;;;;0.05;0.00;;;20.40;63.40;;;;;;5032225;28;20058;-43
2021/12/30 02:58:35;;;;;;;0.98;0.00;;;20.40;63.40;;;;;;5032239;28;20037;-46
2021/12/30 03:01:06;;;;;;;0.10;0.00;;;20.40;63.50;;;;;;5034374;28;20074;-44
2021/12/30 03:03:33;;;;;;;1.67;0.10;;;20.40;63.50;;;;;;5032357;28;20608;-43
2021/12/30 03:06:04;;;;;;;0.45;0.00;;;20.40;63.50;;;;;;5034054;28;20072;-41
2021/12/30 03:08:31;;;;;;;0.08;0.00;;;20.40;63.60;;;;;;5037999;28;20409;-44
2021/12/30 03:10:59;;;;;;;0.00;0.00;;;20.40;63.60;;;;;;5034199;28;20501;-41
2021/12/30 03:13:31;;;;;;;0.30;0.00;;;20.40;63.50;;;;;;5034027;28;20406;-41
2021/12/30 03:16:00;;;;;;;1.08;0.00;;;20.40;63.60;;;;;;5036569;28;20045;-44
2021/12/30 03:18:27;;;;;;;0.47;0.00;;;20.40;63.50;;;;;;5042480;28;20140;-40
2021/12/30 03:20:54;;;;;;;1.95;0.00;;;20.40;63.60;;;;;;5038210;28;20514;-41
2021/12/30 03:23:21;;;;;;;0.03;0.03;;;20.40;63.60;;;;;;5039539;28;20071;-41
2021/12/30 03:25:49;;;;;;;2.28;0.00;;;20.40;63.60;;;;;;5036483;28;20037;-43
2021/12/30 03:28:16;;;;;;;0.03;0.03;;;20.40;64.10;;;;;;5038424;28;20057;-42
2021/12/30 03:30:44;;;;;;;0.00;0.00;;;20.40;63.60;;;;;;5036361;28;20037;-42
2021/12/30 03:33:11;;;;;;;0.00;0.00;;;20.40;63.60;;;;;;5038335;28;20046;-42
2021/12/30 03:35:39;;;;;;;0.03;0.00;;;20.40;63.60;;;;;;5041886;28;20675;-43
2021/12/30 03:38:06;;;;;;;0.15;0.00;;;20.40;63.60;;;;;;5041042;28;20045;-45
2021/12/30 03:40:34;;;;;;;0.10;0.00;;;20.40;63.60;;;;;;5041060;28;20040;-43
2021/12/30 03:43:01;;;;;;;0.32;0.00;;;20.40;63.60;;;;;;5033771;28;20099;-43
2021/12/30 03:45:28;;;;;;;0.00;0.00;;;20.40;63.60;;;;;;5042218;28;20065;-45
2021/12/30 03:47:57;;;;;;;0.00;0.00;;;20.40;63.60;;;;;;5038057;28;20037;-45
2021/12/30 03:50:27;;;;;;;0.43;0.15;;;20.40;63.60;;;;;;5042990;28;20048;-41
2021/12/30 03:52:56;;;;;;;0.55;0.00;;;20.40;64.20;;;;;;5037435;28;20468;-42
2021/12/30 03:55:25;;;;;;;0.98;0.00;;;20.40;63.70;;;;;;5037525;28;20045;-45
2021/12/30 03:57:53;;;;;;;0.30;0.05;;;20.40;63.70;;;;;;5034127;28;20049;-43
2021/12/30 04:00:22;;;;;;;0.00;0.00;;;20.40;63.70;;;;;;5038361;28;20038;-43
2021/12/30 04:02:49;;;;;;;1.95;0.00;;;20.40;63.80;;;;;;5042129;28;20128;-41
2021/12/30 04:05:18;;;;;;;0.00;0.00;;;20.40;63.80;;;;;;5037441;28;20029;-43
2021/12/30 04:07:46;;;;;;;0.43;0.00;;;20.40;63.80;;;;;;5033802;28;20037;-44
2021/12/30 04:10:16;;;;;;;0.52;0.00;;;20.40;63.80;;;;;;5034798;28;20056;-42
2021/12/30 04:12:45;;;;;;;0.35;0.35;;;20.40;63.80;;;;;;5039799;28;20041;-43
2021/12/30 04:15:12;;;;;;;0.10;0.00;;;20.40;63.70;;;;;;5037787;28;20080;-45
2021/12/30 04:17:40;;;;;;;0.45;0.45;;;20.40;63.80;;;;;;5037622;28;20045;-48
2021/12/30 04:20:09;;;;;;;0.00;0.00;;;20.40;63.80;;;;;;5036813;28;20521;-43
2021/12/30 04:22:39;;;;;;;0.00;0.00;;;20.40;63.80;;;;;;5038716;28;20043;-46
2021/12/30 04:25:08;;;;;;;0.00;0.00;;;20.40;63.80;;;;;;5033379;28;20426;-44
2021/12/30 04:27:36;;;;;;;0.00;0.00;;;20.40;63.80;;;;;;5036059;28;20045;-45
2021/12/30 04:30:04;;;;;;;0.08;0.00;;;20.40;63.80;;;;;;5042328;28;20422;-45
2021/12/30 04:32:31;;;;;;;0.75;0.00;;;20.40;63.80;;;;;;5037460;28;20038;-45
2021/12/30 04:34:58;;;;;;;0.43;0.00;;;20.40;63.70;;;;;;5038647;28;20048;-42
2021/12/30 04:37:26;;;;;;;0.00;0.00;;;20.40;63.70;;;;;;5034842;28;20033;-45
2021/12/30 04:39:54;;;;;;;0.00;0.00;;;20.40;63.70;;;;;;5038032;28;20667;-46
2021/12/30 04:42:21;;;;;;;0.55;0.00;;;20.40;63.70;;;;;;5036258;28;20042;-44
2021/12/30 04:44:49;;;;;;;0.05;0.00;;;20.40;63.70;;;;;;5038080;28;20045;-45
2021/12/30 04:47:16;;;;;;;1.65;0.00;;;20.40;63.70;;;;;;5036745;28;20421;-43
2021/12/30 04:49:43;;;;;;;0.00;0.00;;;20.40;63.70;;;;;;5036449;28;20137;-43
2021/12/30 04:52:10;;;;;;;0.10;0.00;;;20.40;63.60;;;;;;5042534;28;20038;-47
2021/12/30 04:54:37;;;;;;;0.10;0.00;;;20.40;63.60;;;;;;5036022;28;20049;-46
2021/12/30 04:57:05;;;;;;;0.22;0.00;;;20.40;63.60;;;;;;5040863;28;20046;-42
2021/12/30 04:59:32;;;;;;;1.35;0.17;;;20.40;63.50;;;;;;5036663;28;20037;-47
2021/12/30 05:01:59;;;;;;;0.10;0.00;;;20.40;63.60;;;;;;5033694;28;20500;-45
2021/12/30 05:04:27;;;;;;;0.55;0.00;;;20.40;63.60;;;;;;5034414;28;20183;-45
2021/12/30 05:06:54;;;;;;;0.65;0.20;;;20.40;63.60;;;;;;5036820;28;20041;-43
2021/12/30 05:09:21;;;;;;;0.35;0.00;;;20.40;63.60;;;;;;5037003;28;20041;-45
2021/12/30 05:11:48;;;;;;;0.73;0.10;;;20.40;63.50;;;;;;5036596;28;20052;-41
2021/12/30 05:14:16;;;;;;;1.33;0.00;;;20.40;63.60;;;;;;5034517;28;20421;-45
2021/12/30 05:16:44;;;;;;;0.28;0.20;;;20.40;63.60;;;;;;5033227;28;20564;-43
2021/12/30 05:19:11;;;;;;;0.30;0.00;;;20.40;63.50;;;;;;5032412;28;20038;-47
2021/12/30 05:21:38;;;;;;;0.05;0.00;;;20.40;63.50;;;;;;5035163;28;20053;-49
2021/12/30 05:24:06;;;;;;;0.65;0.00;;;20.40;63.50;;;;;;5035887;28;20041;-44
2021/12/30 05:26:33;;;;;;;0.00;0.00;;;20.40;63.60;;;;;;5036465;28;20041;-45
2021/12/30 05:29:03;;;;;;;0.10;0.00;;;20.40;63.50;;;;;;5033073;28;20132;-46
2021/12/30 05:31:32;;;;;;;0.55;0.00;;;20.40;63.50;;;;;;5033580;28;20470;-42
2021/12/30 05:33:59;;;;;;;0.03;0.00;;;20.40;63.50;;;;;;5045264;28;20048;-42
2021/12/30 05:36:26;;;;;;;1.70;0.00;;;20.40;63.40;;;;;;5035962;28;20045;-45
2021/12/30 05:38:53;;;;;;;0.00;0.00;;;20.40;63.40;;;;;;5036597;28;20521;-42
2021/12/30 05:41:21;;;;;;;0.25;0.00;;;20.40;63.50;;;;;;5037610;28;20093;-44
2021/12/30 05:43:48;;;;;;;0.20;0.00;;;20.40;63.50;;;;;;5044552;28;20041;-45
2021/12/30 05:46:15;;;;;;;0.00;0.00;;;20.40;63.50;;;;;;5031074;28;20052;-44
2021/12/30 05:48:44;;;;;;;0.75;0.00;;;20.40;63.50;;;;;;5034349;28;20037;-43
2021/12/30 05:51:11;;;;;;;0.70;0.00;;;20.40;63.60;;;;;;5044105;28;20045;-47
2021/12/30 05:53:38;;;;;;;1.77;0.00;;;20.40;63.60;;;;;;5040469;28;20080;-44
2021/12/30 05:56:05;;;;;;;0.22;0.00;;;20.30;63.50;;;;;;5033606;28;20061;-42
2021/12/30 05:58:32;;;;;;;0.10;0.00;;;20.30;63.60;;;;;;5044521;28;20037;-42
2021/12/30 06:00:59;;;;;;;1.02;0.00;;;20.30;63.70;;;;;;5044581;28;20067;-42
2021/12/30 06:03:26;;;;;;;1.88;0.00;;;20.30;63.70;;;;;;5031334;28;20396;-43
2021/12/30 06:05:55;;;;;;;2.35;0.00;;;20.30;63.70;;;;;;5036245;28;20049;-44
2021/12/30 06:08:22;;;;;;;1.17;0.10;;;20.30;64.30;;;;;;5036977;28;20071;-43
2021/12/30 06:10:49;;;;;;;0.52;0.00;;;20.30;63.80;;;;;;5040551;28;20045;-44
2021/12/30 06:13:16;;;;;;;0.55;0.00;;;20.30;63.70;;;;;;5043065;28;20037;-41
2021/12/30 06:15:43;;;;;;;0.08;0.00;;;20.30;63.80;;;;;;5033482;28;20045;-43
2021/12/30 06:18:10;;;;;;;0.85;0.00;;;20.30;63.80;;;;;;5039559;28;20063;-43
2021/12/30 06:20:37;;;;;;;0.85;0.00;;;20.30;63.80;;;;;;5035648;28;20051;-42
2021/12/30 06:23:05;;;;;;;0.17;0.00;;;20.30;63.80;;;;;;5034745;28;20417;-45
2021/12/30 06:25:32;;;;;;;0.75;0.00;;;20.30;63.80;;;;;;5032994;28;20128;-45
2021/12/30 06:27:59;;;;;;;0.80;0.00;;;20.30;63.80;;;;;;5043738;28;20048;-42
2021/12/30 06:30:26;;;;;;;3.92;0.10;;;20.30;63.80;;;;;;5035073;28;20056;-42
2021/12/30 06:32:53;;;;;;;1.38;0.00;;;20.30;63.70;;;;;;5038883;28;20099;-48
2021/12/30 06:35:20;;;;;;;3.20;0.45;;;20.30;63.70;;;;;;5033329;28;20451;-47
2021/12/30 06:37:48;;;;;;;0.30;0.00;;;20.30;63.80;;;;;;5031908;28;20041;-47
2021/12/30 06:40:16;;;;;;;2.90;0.20;;;20.30;63.80;;;;;;5031265;28;20502;-43
2021/12/30 06:42:44;;;;;;;3.15;0.00;;;20.30;63.80;;;;;;5031848;28;20537;-44
2021/12/30 06:45:11;;;;;;;1.98;0.17;;;20.20;63.70;;;;;;5032925;28;20076;-48
2021/12/30 06:47:38;;;;;;;1.98;0.03;;;20.20;63.70;;;;;;5035216;28;20053;-47
2021/12/30 06:50:07;;;;;;;2.85;0.17;;;20.20;63.70;;;;;;5036895;28;20398;-46
2021/12/30 06:52:34;;;;;;;2.53;0.10;;;20.20;63.70;;;;;;5042058;28;20086;-45
2021/12/30 06:55:01;;;;;;;3.13;0.10;;;20.20;63.70;;;;;;5043335;28;20072;-42
2021/12/30 06:57:30;;;;;;;0.98;0.20;;;20.20;63.70;;;;;;5042472;28;20124;-45
2021/12/30 06:59:58;;;;;;;1.02;0.00;;;20.20;63.70;;;;;;5047446;28;20051;-44
2021/12/30 07:02:25;;;;;;;1.50;0.10;;;20.20;63.70;;;;;;5047844;28;20064;-42
2021/12/30 07:04:52;;;;;;;3.13;0.20;;;20.20;63.70;;;;;;5042463;28;20041;-46
2021/12/30 07:07:19;;;;;;;3.47;0.10;;;20.20;63.60;;;;;;5045862;28;20041;-43
2021/12/30 07:09:47;;;;;;;1.85;0.15;;;20.20;63.70;;;;;;5035244;28;20042;-43
2021/12/30 07:12:14;;;;;;;0.85;0.22;;;20.20;63.70;;;;;;5035679;28;20042;-42
2021/12/30 07:14:43;;;;;;;2.17;0.10;;;20.20;63.60;;;;;;5034477;28;20042;-46
2021/12/30 07:17:10;;;;;;;2.50;0.20;;;20.20;63.70;;;;;;5034902;28;20037;-42
2021/12/30 07:19:37;;;;;;;2.05;0.10;;;20.10;63.70;;;;;;5035318;28;20149;-46
2021/12/30 07:22:05;;;;;;;3.92;0.28;;;20.20;63.80;;;;;;5032204;28;20037;-43
2021/12/30 07:24:32;;;;;;;1.45;0.10;;;20.10;63.70;;;;;;5034620;28;20055;-44
2021/12/30 07:26:59;;;;;;;1.92;0.10;;;20.10;63.70;;;;;;5036955;28;20130;-45
2021/12/30 07:29:26;;;;;;;1.42;0.20;;;20.10;64.30;;;;;;5034649;28;20052;-42
2021/12/30 07:31:55;;;;;;;0.85;0.10;;;20.10;63.80;;;;;;5037019;28;20059;-42
2021/12/30 07:34:22;;;;;;;1.05;0.73;;;20.10;63.80;;;;;;5044821;28;20679;-45
2021/12/30 07:36:49;;;;;;;2.20;0.90;;;20.10;63.80;;;;;;5049287;28;20045;-47
2021/12/30 07:39:16;;;;;;;2.67;0.10;;;20.10;63.80;;;;;;5048024;28;20052;-42
2021/12/30 07:41:43;;;;;;;1.83;0.55;;;20.10;63.80;;;;;;5047375;28;20045;-45
2021/12/30 07:44:10;;;;;;;4.80;0.10;;;20.10;63.80;;;;;;5047150;28;20037;-43
2021/12/30 07:46:37;;;;;;;3.60;0.10;;;20.10;63.70;;;;;;5042659;28;20601;-43
2021/12/30 07:49:06;;;;;;;1.88;0.10;;;20.10;63.70;;;;;;5047385;28;20589;-41
2021/12/30 07:51:33;;;;;;;4.28;0.22;;;20.10;63.70;;;;;;5042940;28;20234;-44
2021/12/30 07:54:01;;;;;;;1.98;0.63;;;20.10;63.70;;;;;;5039647;28;20053;-44
2021/12/30 07:56:28;;;;;;;2.58;0.10;;;20.10;63.70;;;;;;5033716;28;20041;-45
2021/12/30 07:58:55;;;;;;;0.82;0.30;;;20.10;63.70;;;;;;5031328;28;20055;-43
2021/12/30 08:01:22;;;;;;;3.92;1.02;;;20.10;63.70;;;;;;5033657;28;20045;-44
2021/12/30 08:03:49;;;;;;;1.65;0.30;;;20.10;63.60;;;;;;5045136;28;20124;-43
2021/12/30 08:06:18;;;;;;;0.32;0.10;;;20.10;63.60;;;;;;5047491;28;20464;-45
2021/12/30 08:08:45;;;;;;;8.57;0.10;;;20.10;63.60;;;;;;5046549;28;20051;-46
2021/12/30 08:11:12;;;;;;;3.65;0.28;;;20.10;63.70;;;;;;5046523;28;20045;-43
2021/12/30 08:13:39;;;;;;;6.25;1.00;;;20.00;63.60;;;;;;5046748;28;20743;-48
2021/12/30 08:16:07;;;;;;;2.22;0.10;;;20.10;63.60;;;;;;5046844;28;20048;-47
2021/12/30 08:18:34;;;;;;;0.82;0.10;;;20.10;63.60;;;;;;5048298;28;20068;-46
2021/12/30 08:21:02;;;;;;;3.70;0.82;;;20.10;63.60;;;;;;5041221;28;20823;-44
2021/12/30 08:23:30;;;;;;;1.50;0.65;;;20.10;63.60;;;;;;5038579;28;20052;-47
2021/12/30 08:25:57;;;;;;;3.13;0.80;;;20.10;63.60;;;;;;5031348;28;20067;-44
2021/12/30 08:28:27;;;;;;;3.42;0.55;;;20.10;63.60;;;;;;5039553;28;20045;-45
2021/12/30 08:30:55;;;;;;;3.45;0.15;;;20.10;63.50;;;;;;5043695;28;20113;-44
2021/12/30 08:33:22;;;;;;;1.10;0.40;;;20.10;63.50;;;;;;5044464;28;20038;-46
2021/12/30 08:35:50;;;;;;;2.15;0.10;;;20.10;63.50;;;;;;5036131;28;20124;-42
2021/12/30 08:38:18;;;;;;;3.05;0.90;;;20.10;63.50;;;;;;5039556;28;20044;-42
2021/12/30 08:40:48;;;;;;;2.65;0.52;;;20.10;63.50;;;;;;5034146;28;20037;-40
2021/12/30 08:43:16;;;;;;;2.85;0.30;;;20.10;63.60;;;;;;5040447;28;20045;-45
2021/12/30 08:45:44;;;;;;;4.30;1.23;;;20.10;63.50;;;;;;5047549;28;20057;-42
2021/12/30 08:48:11;;;;;;;4.53;0.30;;;20.10;63.50;;;;;;5038476;28;20394;-43
2021/12/30 08:50:39;;;;;;;3.78;0.30;;;20.10;63.50;;;;;;5036902;28;20044;-42
2021/12/30 08:53:08;;;;;;;2.08;0.10;;;20.10;63.40;;;;;;5036714;28;20121;-47
2021/12/30 08:55:35;;;;;;;3.25;0.10;;;20.10;63.40;;;;;;5040381;28;20383;-43
2021/12/30 08:58:04;;;;;;;2.17;0.20;;;20.10;63.40;;;;;;5039494;28;20043;-42
2021/12/30 09:00:41;;;;;;;3.30;0.20;;;20.10;63.40;;;;;;5038328;28;20044;-43
2021/12/30 09:03:08;;;;;;;2.72;0.20;;;20.10;63.30;;;;;;5034584;28;20336;-45
2021/12/30 09:05:36;;;;;;;9.55;1.27;;;20.10;63.40;;;;;;5040756;28;20406;-41
2021/12/30 09:08:05;;;;;;;7.60;0.43;;;20.10;63.40;;;;;;5044434;28;20144;-39
2021/12/30 09:10:40;;;;;;;5.45;0.10;;;20.10;63.50;;;;;;5038477;28;20086;-39
2021/12/30 09:13:09;;;;;;;6.07;0.75;;;20.20;63.60;;;;;;5042823;28;20068;-39
2021/12/30 09:15:36;;;;;;;5.68;1.10;;;20.20;63.50;;;;;;5040537;28;20046;-40
2021/12/30 09:18:06;;;;;;;3.60;0.20;;;20.30;63.40;;;;;;5038938;28;20045;-40
2021/12/30 09:20:35;;;;;;;2.95;0.28;;;20.30;63.30;;;;;;5040323;28;20572;-41
2021/12/30 09:23:04;;;;;;;2.80;0.40;;;20.40;63.40;;;;;;5040895;28;20051;-44
2021/12/30 09:25:32;;;;;;;4.55;0.68;;;20.40;63.40;;;;;;5038761;28;20069;-40
2021/12/30 09:28:00;;;;;;;3.40;0.85;;;20.50;63.50;;;;;;5036505;28;20051;-43
2021/12/30 09:30:28;;;;;;;4.07;0.20;;;20.50;63.50;;;;;;5039109;28;20042;-40
2021/12/30 09:32:58;;;;;;;2.38;0.75;;;20.50;63.40;;;;;;5039396;28;20045;-39
2021/12/30 09:35:26;;;;;;;5.18;0.20;;;20.50;63.40;;;;;;5041114;28;20135;-41
2021/12/30 09:37:54;;;;;;;8.45;0.73;;;20.50;63.30;;;;;;5025594;28;20041;-51
2021/12/30 09:40:22;;;;;;;1.45;0.20;;;20.50;63.00;;;;;;5033919;28;20037;-53
2021/12/30 09:42:53;;;;;;;3.13;0.22;;;20.50;63.30;;;;;;5038119;28;20041;-55
2021/12/30 09:45:21;;;;;;;3.05;0.50;;;20.50;63.40;;;;;;5037677;28;20426;-55
2021/12/30 09:47:51;;;;;;;4.00;0.43;;;20.60;63.40;;;;;;5035371;28;20041;-46
2021/12/30 09:50:22;;;;;;;5.53;0.38;;;20.70;63.20;;;;;;5038876;28;20044;-63
2021/12/30 09:52:50;;;;;;;2.80;0.30;;;20.80;63.00;;;;;;5036372;28;20733;-61
2021/12/30 09:55:18;;;;;;;3.00;0.50;;;20.80;62.70;;;;;;5035419;28;20048;-60
2021/12/30 09:57:45;;;;;;;4.65;0.60;;;21.00;62.40;;;;;;5034376;28;20056;-59
2021/12/30 10:00:15;;;;;;;4.38;0.57;;;21.10;62.50;;;;;;5033226;28;20127;-58
2021/12/30 10:02:43;;;;;;;2.42;0.50;;;21.20;61.60;;;;;;5036172;28;20526;-55
2021/12/30 10:05:15;;;;;;;5.55;0.35;;;21.30;61.30;;;;;;5038185;28;20128;-55
2021/12/30 10:07:43;;;;;;;1.25;0.20;;;21.40;61.00;;;;;;5036977;28;20647;-58
2021/12/30 10:10:29;;;;;;;3.72;0.93;;;21.50;60.60;;;;;;5039427;28;20451;-58
2021/12/30 10:12:57;;;;;;;2.50;0.28;;;21.70;60.30;;;;;;5037548;28;20041;-57
2021/12/30 10:15:28;;;;;;;3.22;0.30;;;21.80;60.00;;;;;;5039952;28;20052;-59
2021/12/30 10:17:57;;;;;;;1.30;0.20;;;21.90;59.60;;;;;;5016848;28;20053;-59
2021/12/30 10:20:27;;;;;;;3.20;0.47;;;21.90;59.20;;;;;;5035813;28;20037;-59
2021/12/30 10:22:56;;;;;;;1.30;0.45;;;22.00;58.90;;;;;;5037092;28;20051;-59
2021/12/30 10:25:29;;;;;;;4.55;0.43;;;22.20;58.70;;;;;;5034887;28;20040;-57
2021/12/30 10:27:56;;;;;;;3.25;0.50;;;22.30;58.40;;;;;;5033298;28;20126;-56
2021/12/30 10:30:36;;;;;;;3.70;1.42;;;22.30;58.00;;;;;;5037627;28;20052;-59
2021/12/30 10:33:14;;;;;;;4.53;0.73;;;22.50;57.70;;;;;;5033859;28;20504;-60
2021/12/30 10:35:43;;;;;;;4.55;0.93;;;22.60;57.30;;;;;;5037961;28;20128;-58
2021/12/30 10:38:11;;;;;;;2.65;0.55;;;22.60;56.90;;;;;;5036008;28;20056;-62
2021/12/30 10:40:41;;;;;;;4.15;0.73;;;22.70;56.50;;;;;;5040213;28;20095;-54
2021/12/30 10:43:23;;;;;;;3.17;1.17;;;22.80;56.30;;;;;;5036799;28;20045;-56
2021/12/30 10:46:14;;;;;;;2.60;0.57;;;22.90;56.10;;;;;;5035632;28;20052;-58
2021/12/30 10:48:57;;;;;;;2.38;0.40;;;23.00;55.80;;;;;;5035554;28;20122;-56
2021/12/30 10:51:31;;;;;;;3.30;0.77;;;23.10;55.60;;;;;;5040515;28;20131;-61
2021/12/30 10:54:00;;;;;;;6.75;0.73;;;23.10;55.30;;;;;;5038021;28;20107;-63
2021/12/30 10:56:31;;;;;;;4.15;0.55;;;23.10;55.30;;;;;;5036671;28;20706;-60
2021/12/30 10:59:27;;;;;;;5.55;1.98;;;23.20;55.00;;;;;;5037850;28;20207;-61
2021/12/30 11:01:58;;;;;;;3.43;0.40;;;23.30;54.60;;;;;;4964454;28;20051;-55
2021/12/30 11:04:37;;;;;;;2.50;0.85;;;23.40;54.50;;;;;;4956900;28;20043;-58
2021/12/30 11:07:07;;;;;;;9.55;1.42;;;23.50;54.30;;;;;;4961280;28;20050;-67
2021/12/30 11:09:35;;;;;;;7.55;1.20;;;23.50;54.00;;;;;;4959677;28;20050;-70
2021/12/30 11:12:05;;;;;;;5.38;0.50;;;23.60;53.80;;;;;;4959186;28;20435;-71
2021/12/30 11:14:36;;;;;;;4.25;0.95;;;23.60;53.50;;;;;;4959078;28;20046;-70
2021/12/30 11:17:17;;;;;;;2.25;0.82;;;23.70;53.30;;;;;;4956666;28;20050;-74
2021/12/30 11:19:50;;;;;;;14.65;1.02;;;23.70;53.20;;;;;;4958487;28;20420;-64
2021/12/30 11:22:20;;;;;;;6.28;1.02;;;23.80;53.70;;;;;;4963878;28;20042;-64
2021/12/30 11:24:48;;;;;;;7.93;1.40;;;23.80;54.60;;;;;;4962819;28;20076;-63
2021/12/30 11:27:17;;;;;;;4.88;0.47;;;23.80;55.00;;;;;;4957711;28;20061;-62
2021/12/30 11:29:46;;;;;;;6.65;1.55;;;23.90;55.30;;;;;;4960190;28;20054;-62
2021/12/30 11:32:17;;;;;;;5.78;0.50;;;23.90;55.40;;;;;;4960222;28;20055;-61
2021/12/30 11:34:45;;;;;;;13.75;1.23;;;23.90;55.50;;;;;;4962370;28;20046;-64
2021/12/30 11:37:14;;;;;;;5.93;0.95;;;24.00;55.60;;;;;;4983471;28;20057;-64
2021/12/30 11:39:44;;;;;;;6.43;0.95;;;24.00;55.70;;;;;;5042631;28;20368;-63
2021/12/30 11:42:18;;;;;;;7.93;0.45;;;24.00;55.80;;;;;;5035956;28;20092;-64
2021/12/30 11:44:47;;;;;;;5.93;0.80;;;24.10;55.90;;;;;;5039204;28;20045;-61
2021/12/30 11:47:37;;;;;;;8.60;1.00;;;24.00;55.90;;;;;;5035748;28;20767;-61
2021/12/30 11:50:08;;;;;;;8.65;0.93;;;24.10;55.90;;;;;;5038357;28;20152;-62
2021/12/30 11:53:04;;;;;;;2.53;0.28;;;24.10;55.90;;;;;;5040160;28;20045;-62
2021/12/30 11:55:57;;;;;;;3.78;1.20;;;24.10;55.80;;;;;;5041320;28;20569;-62
2021/12/30 11:58:51;;;;;;;4.55;0.80;;;24.10;55.80;;;;;;5038258;28;20052;-62
2021/12/30 12:01:40;;;;;;;4.38;0.98;;;24.10;55.80;;;;;;5040879;28;20048;-61
2021/12/30 12:04:16;;;;;;;7.40;0.98;;;24.10;56.00;;;;;;5036736;28;20076;-62
2021/12/30 12:06:46;;;;;;;4.93;1.00;;;24.10;56.00;;;;;;5042514;28;20049;-62
2021/12/30 12:09:32;;;;;;;3.05;0.80;;;24.10;56.00;;;;;;5037148;28;20045;-62
2021/12/30 12:12:04;;;;;;;1.30;0.10;;;24.10;56.00;;;;;;5038500;28;20147;-62
2021/12/30 12:14:32;;;;;;;4.78;0.50;;;24.10;56.00;;;;;;5040958;28;20056;-63
2021/12/30 12:17:01;;;;;;;4.57;1.58;;;24.10;56.00;;;;;;5038589;28;20045;-62
2021/12/30 12:19:39;;;;;;;3.28;0.20;;;24.10;55.90;;;;;;5037603;28;20083;-63
2021/12/30 12:22:09;;;;;;;1.42;0.20;;;24.20;56.00;;;;;;5041271;28;20049;-63
2021/12/30 12:24:41;;;;;;;4.15;0.30;;;24.10;56.00;;;;;;5038499;28;20139;-63
2021/12/30 12:27:29;;;;;;;3.95;0.65;;;24.20;56.10;;;;;;5037677;28;20103;-63
2021/12/30 12:29:57;;;;;;;3.22;0.60;;;24.20;56.10;;;;;;5039052;28;20048;-62
2021/12/30 12:32:38;;;;;;;3.10;1.73;;;24.20;56.00;;;;;;5039761;28;20033;-63
2021/12/30 12:35:21;;;;;;;2.28;0.13;;;24.20;55.90;;;;;;5038015;28;20627;-62
2021/12/30 12:37:54;;;;;;;1.02;0.73;;;24.20;55.80;;;;;;5036201;28;20033;-62
2021/12/30 12:40:26;;;;;;;1.58;0.10;;;24.20;55.80;;;;;;5036557;28;20041;-62
2021/12/30 12:43:17;;;;;;;3.50;0.20;;;24.20;55.70;;;;;;5039152;28;20044;-62
2021/12/30 12:45:59;;;;;;;0.40;0.10;;;24.20;55.60;;;;;;5041170;28;20045;-62
2021/12/30 12:48:32;;;;;;;3.38;0.20;;;24.20;55.70;;;;;;5038307;28;20506;-62
2021/12/30 12:51:02;;;;;;;1.98;0.35;;;24.20;55.70;;;;;;5040643;28;20064;-62
2021/12/30 12:53:45;;;;;;;3.20;0.55;;;24.20;55.60;;;;;;5039742;28;20521;-62
2021/12/30 12:56:16;;;;;;;3.35;0.32;;;24.20;55.60;;;;;;5036383;28;20056;-62